sensor_id;sensor_type;location;lat;lon;timestamp;P1;durP1;ratioP1;P2;durP2;ratioP2
24644;SDS011;12780;45.502;9.146;2022-10-19T00:01:57;77.10;;;39.72;;
24644;SDS011;12780;45.502;9.146;2022-10-19T00:04:23;73.93;;;37.83;;
24644;SDS011;12780;45.502;9.146;2022-10-19T00:06:48;73.28;;;37.55;;
24644;SDS011;12780;45.502;9.146;2022-10-19T00:09:15;67.18;;;37.63;;
24644;SDS011;12780;45.502;9.146;2022-10-19T00:11:43;70.97;;;38.33;;
24644;SDS011;12780;45.502;9.146;2022-10-19T00:14:12;67.38;;;37.47;;
24644;SDS011;12780;45.502;9.146;2022-10-19T00:16:39;66.72;;;35.83;;
24644;SDS011;12780;45.502;9.146;2022-10-19T00:19:07;72.05;;;37.53;;
24644;SDS011;12780;45.502;9.146;2022-10-19T00:21:35;68.82;;;36.42;;
24644;SDS011;12780;45.502;9.146;2022-10-19T00:24:03;65.30;;;35.30;;
24644;SDS011;12780;45.502;9.146;2022-10-19T00:26:29;72.57;;;36.50;;
24644;SDS011;12780;45.502;9.146;2022-10-19T00:28:55;77.43;;;37.78;;
24644;SDS011;12780;45.502;9.146;2022-10-19T00:31:21;64.85;;;35.65;;
24644;SDS011;12780;45.502;9.146;2022-10-19T00:33:47;64.10;;;35.13;;
24644;SDS011;12780;45.502;9.146;2022-10-19T00:36:14;65.80;;;35.70;;
24644;SDS011;12780;45.502;9.146;2022-10-19T00:38:44;61.55;;;35.25;;
24644;SDS011;12780;45.502;9.146;2022-10-19T00:41:10;67.00;;;34.95;;
24644;SDS011;12780;45.502;9.146;2022-10-19T00:43:49;68.43;;;34.17;;
24644;SDS011;12780;45.502;9.146;2022-10-19T00:46:26;66.60;;;34.05;;
24644;SDS011;12780;45.502;9.146;2022-10-19T00:48:56;65.10;;;33.75;;
24644;SDS011;12780;45.502;9.146;2022-10-19T00:51:25;70.20;;;36.75;;
24644;SDS011;12780;45.502;9.146;2022-10-19T00:53:52;63.97;;;35.78;;
24644;SDS011;12780;45.502;9.146;2022-10-19T00:56:20;62.95;;;35.17;;
24644;SDS011;12780;45.502;9.146;2022-10-19T00:58:45;60.67;;;32.45;;
24644;SDS011;12780;45.502;9.146;2022-10-19T01:01:14;63.72;;;34.85;;
24644;SDS011;12780;45.502;9.146;2022-10-19T01:03:42;60.40;;;34.63;;
24644;SDS011;12780;45.502;9.146;2022-10-19T01:06:09;64.90;;;35.10;;
24644;SDS011;12780;45.502;9.146;2022-10-19T01:08:37;59.72;;;34.05;;
24644;SDS011;12780;45.502;9.146;2022-10-19T01:17:03;60.70;;;32.78;;
24644;SDS011;12780;45.502;9.146;2022-10-19T01:28:25;56.55;;;31.45;;
24644;SDS011;12780;45.502;9.146;2022-10-19T01:30:52;57.95;;;32.25;;
24644;SDS011;12780;45.502;9.146;2022-10-19T01:36:09;53.88;;;30.33;;
24644;SDS011;12780;45.502;9.146;2022-10-19T01:41:37;51.28;;;29.65;;
24644;SDS011;12780;45.502;9.146;2022-10-19T01:44:17;55.33;;;31.00;;
24644;SDS011;12780;45.502;9.146;2022-10-19T01:46:50;54.75;;;30.05;;
24644;SDS011;12780;45.502;9.146;2022-10-19T01:49:21;49.35;;;29.65;;
24644;SDS011;12780;45.502;9.146;2022-10-19T01:51:57;51.45;;;29.58;;
24644;SDS011;12780;45.502;9.146;2022-10-19T01:56:54;52.60;;;29.80;;
24644;SDS011;12780;45.502;9.146;2022-10-19T01:59:23;53.78;;;29.83;;
24644;SDS011;12780;45.502;9.146;2022-10-19T02:01:50;51.63;;;29.98;;
24644;SDS011;12780;45.502;9.146;2022-10-19T02:04:19;50.70;;;29.90;;
24644;SDS011;12780;45.502;9.146;2022-10-19T02:06:46;55.38;;;29.33;;
24644;SDS011;12780;45.502;9.146;2022-10-19T02:09:14;50.80;;;29.90;;
24644;SDS011;12780;45.502;9.146;2022-10-19T02:11:42;47.90;;;27.95;;
24644;SDS011;12780;45.502;9.146;2022-10-19T02:14:12;48.13;;;28.17;;
24644;SDS011;12780;45.502;9.146;2022-10-19T02:16:44;53.17;;;28.67;;
24644;SDS011;12780;45.502;9.146;2022-10-19T02:19:14;50.22;;;28.02;;
24644;SDS011;12780;45.502;9.146;2022-10-19T02:21:41;46.70;;;27.80;;
24644;SDS011;12780;45.502;9.146;2022-10-19T02:24:07;54.67;;;29.02;;
24644;SDS011;12780;45.502;9.146;2022-10-19T02:26:32;51.65;;;28.77;;
24644;SDS011;12780;45.502;9.146;2022-10-19T02:28:58;56.00;;;28.10;;
24644;SDS011;12780;45.502;9.146;2022-10-19T02:31:24;49.45;;;28.10;;
24644;SDS011;12780;45.502;9.146;2022-10-19T02:33:50;48.25;;;27.88;;
24644;SDS011;12780;45.502;9.146;2022-10-19T02:36:16;49.22;;;28.27;;
24644;SDS011;12780;45.502;9.146;2022-10-19T02:38:42;47.95;;;27.63;;
24644;SDS011;12780;45.502;9.146;2022-10-19T02:41:16;46.33;;;27.25;;
24644;SDS011;12780;45.502;9.146;2022-10-19T02:46:51;49.92;;;27.45;;
24644;SDS011;12780;45.502;9.146;2022-10-19T02:49:22;50.03;;;28.98;;
24644;SDS011;12780;45.502;9.146;2022-10-19T02:51:56;52.05;;;28.05;;
24644;SDS011;12780;45.502;9.146;2022-10-19T02:54:26;48.20;;;27.08;;
24644;SDS011;12780;45.502;9.146;2022-10-19T02:56:52;47.67;;;27.38;;
24644;SDS011;12780;45.502;9.146;2022-10-19T02:59:18;53.42;;;28.00;;
24644;SDS011;12780;45.502;9.146;2022-10-19T03:01:44;48.65;;;27.83;;
24644;SDS011;12780;45.502;9.146;2022-10-19T03:04:09;47.33;;;27.45;;
24644;SDS011;12780;45.502;9.146;2022-10-19T03:06:35;44.42;;;27.00;;
24644;SDS011;12780;45.502;9.146;2022-10-19T03:09:01;47.83;;;25.90;;
24644;SDS011;12780;45.502;9.146;2022-10-19T03:11:27;47.13;;;27.33;;
24644;SDS011;12780;45.502;9.146;2022-10-19T03:13:52;48.00;;;26.02;;
24644;SDS011;12780;45.502;9.146;2022-10-19T03:16:18;50.45;;;26.58;;
24644;SDS011;12780;45.502;9.146;2022-10-19T03:18:43;44.38;;;26.33;;
24644;SDS011;12780;45.502;9.146;2022-10-19T03:21:12;49.20;;;26.77;;
24644;SDS011;12780;45.502;9.146;2022-10-19T03:23:37;48.92;;;25.83;;
24644;SDS011;12780;45.502;9.146;2022-10-19T03:26:04;45.22;;;25.23;;
24644;SDS011;12780;45.502;9.146;2022-10-19T03:28:31;40.63;;;25.13;;
24644;SDS011;12780;45.502;9.146;2022-10-19T03:30:57;45.38;;;26.08;;
24644;SDS011;12780;45.502;9.146;2022-10-19T03:33:22;45.67;;;26.38;;
24644;SDS011;12780;45.502;9.146;2022-10-19T03:35:48;43.72;;;25.70;;
24644;SDS011;12780;45.502;9.146;2022-10-19T03:38:14;44.35;;;25.80;;
24644;SDS011;12780;45.502;9.146;2022-10-19T03:40:39;41.33;;;24.25;;
24644;SDS011;12780;45.502;9.146;2022-10-19T03:43:05;42.80;;;26.92;;
24644;SDS011;12780;45.502;9.146;2022-10-19T03:45:31;44.22;;;25.70;;
24644;SDS011;12780;45.502;9.146;2022-10-19T03:47:56;43.83;;;26.23;;
24644;SDS011;12780;45.502;9.146;2022-10-19T03:50:22;47.17;;;25.77;;
24644;SDS011;12780;45.502;9.146;2022-10-19T03:52:48;44.08;;;24.98;;
24644;SDS011;12780;45.502;9.146;2022-10-19T03:55:14;45.72;;;25.50;;
24644;SDS011;12780;45.502;9.146;2022-10-19T03:57:40;44.65;;;25.70;;
24644;SDS011;12780;45.502;9.146;2022-10-19T04:00:06;43.63;;;25.95;;
24644;SDS011;12780;45.502;9.146;2022-10-19T04:02:34;45.15;;;24.40;;
24644;SDS011;12780;45.502;9.146;2022-10-19T04:04:59;48.85;;;26.02;;
24644;SDS011;12780;45.502;9.146;2022-10-19T04:07:25;42.13;;;25.13;;
24644;SDS011;12780;45.502;9.146;2022-10-19T04:09:50;44.38;;;25.42;;
24644;SDS011;12780;45.502;9.146;2022-10-19T04:12:16;47.25;;;25.60;;
24644;SDS011;12780;45.502;9.146;2022-10-19T04:14:41;46.45;;;25.80;;
24644;SDS011;12780;45.502;9.146;2022-10-19T04:17:07;42.25;;;24.88;;
24644;SDS011;12780;45.502;9.146;2022-10-19T04:19:34;44.03;;;23.95;;
24644;SDS011;12780;45.502;9.146;2022-10-19T04:22:00;43.97;;;25.70;;
24644;SDS011;12780;45.502;9.146;2022-10-19T04:24:25;45.95;;;24.45;;
24644;SDS011;12780;45.502;9.146;2022-10-19T04:26:52;40.97;;;24.50;;
24644;SDS011;12780;45.502;9.146;2022-10-19T04:29:19;47.28;;;26.35;;
24644;SDS011;12780;45.502;9.146;2022-10-19T04:31:49;41.53;;;24.08;;
24644;SDS011;12780;45.502;9.146;2022-10-19T04:34:16;46.15;;;24.38;;
24644;SDS011;12780;45.502;9.146;2022-10-19T04:36:43;42.03;;;24.23;;
24644;SDS011;12780;45.502;9.146;2022-10-19T04:39:09;43.95;;;24.45;;
24644;SDS011;12780;45.502;9.146;2022-10-19T04:41:36;40.60;;;23.83;;
24644;SDS011;12780;45.502;9.146;2022-10-19T04:44:02;42.65;;;23.75;;
24644;SDS011;12780;45.502;9.146;2022-10-19T04:46:30;38.95;;;23.25;;
24644;SDS011;12780;45.502;9.146;2022-10-19T04:48:56;39.78;;;23.50;;
24644;SDS011;12780;45.502;9.146;2022-10-19T04:51:22;38.08;;;22.30;;
24644;SDS011;12780;45.502;9.146;2022-10-19T04:53:49;40.92;;;23.08;;
24644;SDS011;12780;45.502;9.146;2022-10-19T04:56:16;43.58;;;23.52;;
24644;SDS011;12780;45.502;9.146;2022-10-19T04:58:43;34.67;;;22.02;;
24644;SDS011;12780;45.502;9.146;2022-10-19T05:01:13;41.88;;;23.77;;
24644;SDS011;12780;45.502;9.146;2022-10-19T05:03:41;40.03;;;21.98;;
24644;SDS011;12780;45.502;9.146;2022-10-19T05:06:07;42.13;;;22.60;;
24644;SDS011;12780;45.502;9.146;2022-10-19T05:08:33;38.80;;;21.38;;
24644;SDS011;12780;45.502;9.146;2022-10-19T05:11:00;41.42;;;22.45;;
24644;SDS011;12780;45.502;9.146;2022-10-19T05:13:26;42.33;;;21.77;;
24644;SDS011;12780;45.502;9.146;2022-10-19T05:15:56;36.10;;;20.88;;
24644;SDS011;12780;45.502;9.146;2022-10-19T05:18:22;38.33;;;21.60;;
24644;SDS011;12780;45.502;9.146;2022-10-19T05:20:48;39.80;;;22.20;;
24644;SDS011;12780;45.502;9.146;2022-10-19T05:23:13;42.45;;;22.70;;
24644;SDS011;12780;45.502;9.146;2022-10-19T05:25:39;42.03;;;21.95;;
24644;SDS011;12780;45.502;9.146;2022-10-19T05:28:04;41.83;;;21.85;;
24644;SDS011;12780;45.502;9.146;2022-10-19T05:30:30;39.05;;;21.52;;
24644;SDS011;12780;45.502;9.146;2022-10-19T05:32:56;41.65;;;22.75;;
24644;SDS011;12780;45.502;9.146;2022-10-19T05:35:22;37.05;;;21.65;;
24644;SDS011;12780;45.502;9.146;2022-10-19T05:37:47;35.80;;;20.35;;
24644;SDS011;12780;45.502;9.146;2022-10-19T05:40:13;37.83;;;21.17;;
24644;SDS011;12780;45.502;9.146;2022-10-19T05:42:38;40.33;;;22.63;;
24644;SDS011;12780;45.502;9.146;2022-10-19T05:45:04;36.03;;;20.45;;
24644;SDS011;12780;45.502;9.146;2022-10-19T05:47:30;39.03;;;20.70;;
24644;SDS011;12780;45.502;9.146;2022-10-19T05:49:57;37.42;;;20.00;;
24644;SDS011;12780;45.502;9.146;2022-10-19T05:52:23;47.08;;;19.85;;
24644;SDS011;12780;45.502;9.146;2022-10-19T05:54:48;38.53;;;19.75;;
24644;SDS011;12780;45.502;9.146;2022-10-19T05:57:14;39.33;;;19.95;;
24644;SDS011;12780;45.502;9.146;2022-10-19T05:59:39;43.05;;;18.65;;
24644;SDS011;12780;45.502;9.146;2022-10-19T06:02:05;36.33;;;17.63;;
24644;SDS011;12780;45.502;9.146;2022-10-19T06:04:30;42.25;;;18.85;;
24644;SDS011;12780;45.502;9.146;2022-10-19T06:06:57;38.10;;;18.50;;
24644;SDS011;12780;45.502;9.146;2022-10-19T06:09:24;31.20;;;17.60;;
24644;SDS011;12780;45.502;9.146;2022-10-19T06:11:50;34.22;;;17.90;;
24644;SDS011;12780;45.502;9.146;2022-10-19T06:14:15;32.33;;;18.73;;
24644;SDS011;12780;45.502;9.146;2022-10-19T06:16:41;33.65;;;18.65;;
24644;SDS011;12780;45.502;9.146;2022-10-19T06:19:06;34.65;;;17.83;;
24644;SDS011;12780;45.502;9.146;2022-10-19T06:21:32;38.72;;;17.85;;
24644;SDS011;12780;45.502;9.146;2022-10-19T06:23:59;35.33;;;17.88;;
24644;SDS011;12780;45.502;9.146;2022-10-19T06:26:27;32.70;;;17.65;;
24644;SDS011;12780;45.502;9.146;2022-10-19T06:28:54;34.22;;;17.20;;
24644;SDS011;12780;45.502;9.146;2022-10-19T06:31:24;34.60;;;18.25;;
24644;SDS011;12780;45.502;9.146;2022-10-19T06:33:50;42.78;;;18.25;;
24644;SDS011;12780;45.502;9.146;2022-10-19T06:36:17;32.75;;;17.80;;
24644;SDS011;12780;45.502;9.146;2022-10-19T06:38:44;38.28;;;20.23;;
24644;SDS011;12780;45.502;9.146;2022-10-19T06:41:11;37.15;;;20.30;;
24644;SDS011;12780;45.502;9.146;2022-10-19T06:43:36;46.90;;;23.83;;
24644;SDS011;12780;45.502;9.146;2022-10-19T06:46:03;47.10;;;21.48;;
24644;SDS011;12780;45.502;9.146;2022-10-19T06:48:30;40.58;;;20.40;;
24644;SDS011;12780;45.502;9.146;2022-10-19T06:50:56;35.45;;;20.23;;
24644;SDS011;12780;45.502;9.146;2022-10-19T06:53:23;46.90;;;19.77;;
24644;SDS011;12780;45.502;9.146;2022-10-19T06:55:49;37.22;;;17.42;;
24644;SDS011;12780;45.502;9.146;2022-10-19T06:58:14;35.72;;;16.90;;
24644;SDS011;12780;45.502;9.146;2022-10-19T07:00:40;39.38;;;16.63;;
24644;SDS011;12780;45.502;9.146;2022-10-19T07:03:05;37.53;;;16.13;;
24644;SDS011;12780;45.502;9.146;2022-10-19T07:05:31;32.92;;;16.77;;
24644;SDS011;12780;45.502;9.146;2022-10-19T07:07:56;36.40;;;17.23;;
24644;SDS011;12780;45.502;9.146;2022-10-19T07:10:22;34.20;;;15.95;;
24644;SDS011;12780;45.502;9.146;2022-10-19T07:12:48;30.50;;;16.08;;
24644;SDS011;12780;45.502;9.146;2022-10-19T07:15:14;37.42;;;16.80;;
24644;SDS011;12780;45.502;9.146;2022-10-19T07:17:39;31.70;;;16.35;;
24644;SDS011;12780;45.502;9.146;2022-10-19T07:20:05;38.65;;;15.50;;
24644;SDS011;12780;45.502;9.146;2022-10-19T07:22:31;34.55;;;17.45;;
24644;SDS011;12780;45.502;9.146;2022-10-19T07:24:56;37.42;;;16.45;;
24644;SDS011;12780;45.502;9.146;2022-10-19T07:27:22;37.25;;;15.68;;
24644;SDS011;12780;45.502;9.146;2022-10-19T07:29:48;31.25;;;15.60;;
24644;SDS011;12780;45.502;9.146;2022-10-19T07:32:14;31.23;;;16.27;;
24644;SDS011;12780;45.502;9.146;2022-10-19T07:34:40;34.55;;;15.90;;
24644;SDS011;12780;45.502;9.146;2022-10-19T07:37:05;37.10;;;17.35;;
24644;SDS011;12780;45.502;9.146;2022-10-19T07:39:31;34.03;;;16.30;;
24644;SDS011;12780;45.502;9.146;2022-10-19T07:41:56;34.22;;;16.63;;
24644;SDS011;12780;45.502;9.146;2022-10-19T07:44:22;39.03;;;16.50;;
24644;SDS011;12780;45.502;9.146;2022-10-19T07:46:48;34.10;;;16.95;;
24644;SDS011;12780;45.502;9.146;2022-10-19T07:49:14;33.75;;;16.55;;
24644;SDS011;12780;45.502;9.146;2022-10-19T07:51:43;35.53;;;16.73;;
24644;SDS011;12780;45.502;9.146;2022-10-19T07:54:08;31.73;;;16.75;;
24644;SDS011;12780;45.502;9.146;2022-10-19T07:56:34;33.00;;;17.33;;
24644;SDS011;12780;45.502;9.146;2022-10-19T07:59:00;32.28;;;17.30;;
24644;SDS011;12780;45.502;9.146;2022-10-19T08:01:30;37.80;;;18.75;;
24644;SDS011;12780;45.502;9.146;2022-10-19T08:03:58;32.30;;;18.45;;
24644;SDS011;12780;45.502;9.146;2022-10-19T08:06:24;40.97;;;20.67;;
24644;SDS011;12780;45.502;9.146;2022-10-19T08:08:50;40.83;;;19.45;;
24644;SDS011;12780;45.502;9.146;2022-10-19T08:11:18;37.55;;;19.55;;
24644;SDS011;12780;45.502;9.146;2022-10-19T08:13:54;36.15;;;19.55;;
24644;SDS011;12780;45.502;9.146;2022-10-19T08:19:01;39.28;;;20.27;;
24644;SDS011;12780;45.502;9.146;2022-10-19T08:21:29;48.80;;;21.73;;
24644;SDS011;12780;45.502;9.146;2022-10-19T08:23:55;39.80;;;20.50;;
24644;SDS011;12780;45.502;9.146;2022-10-19T08:26:21;35.38;;;20.58;;
24644;SDS011;12780;45.502;9.146;2022-10-19T08:28:47;41.45;;;20.20;;
24644;SDS011;12780;45.502;9.146;2022-10-19T08:31:17;31.77;;;19.45;;
24644;SDS011;12780;45.502;9.146;2022-10-19T08:33:44;47.72;;;20.85;;
24644;SDS011;12780;45.502;9.146;2022-10-19T08:36:10;41.20;;;21.77;;
24644;SDS011;12780;45.502;9.146;2022-10-19T08:38:38;37.70;;;20.58;;
24644;SDS011;12780;45.502;9.146;2022-10-19T08:41:15;38.50;;;20.25;;
24644;SDS011;12780;45.502;9.146;2022-10-19T08:44:38;38.33;;;20.35;;
24644;SDS011;12780;45.502;9.146;2022-10-19T08:47:02;36.05;;;20.55;;
24644;SDS011;12780;45.502;9.146;2022-10-19T08:49:49;34.95;;;20.25;;
24644;SDS011;12780;45.502;9.146;2022-10-19T08:54:45;44.78;;;21.95;;
24644;SDS011;12780;45.502;9.146;2022-10-19T09:02:48;43.53;;;21.25;;
24644;SDS011;12780;45.502;9.146;2022-10-19T09:08:25;34.97;;;20.25;;
24644;SDS011;12780;45.502;9.146;2022-10-19T09:10:51;42.97;;;22.83;;
24644;SDS011;12780;45.502;9.146;2022-10-19T09:13:20;40.80;;;21.92;;
24644;SDS011;12780;45.502;9.146;2022-10-19T09:18:29;49.28;;;22.75;;
24644;SDS011;12780;45.502;9.146;2022-10-19T09:21:01;43.25;;;22.77;;
24644;SDS011;12780;45.502;9.146;2022-10-19T09:26:10;40.92;;;23.23;;
24644;SDS011;12780;45.502;9.146;2022-10-19T09:31:14;50.35;;;25.88;;
24644;SDS011;12780;45.502;9.146;2022-10-19T09:34:01;53.05;;;26.20;;
24644;SDS011;12780;45.502;9.146;2022-10-19T09:36:33;48.78;;;25.13;;
24644;SDS011;12780;45.502;9.146;2022-10-19T09:39:02;45.72;;;23.20;;
24644;SDS011;12780;45.502;9.146;2022-10-19T09:41:29;49.60;;;25.40;;
24644;SDS011;12780;45.502;9.146;2022-10-19T09:43:55;46.83;;;25.27;;
24644;SDS011;12780;45.502;9.146;2022-10-19T09:46:32;45.53;;;24.30;;
24644;SDS011;12780;45.502;9.146;2022-10-19T09:49:07;65.15;;;30.88;;
24644;SDS011;12780;45.502;9.146;2022-10-19T09:51:43;56.22;;;28.40;;
24644;SDS011;12780;45.502;9.146;2022-10-19T09:54:23;55.30;;;27.00;;
24644;SDS011;12780;45.502;9.146;2022-10-19T09:56:54;57.75;;;28.27;;
24644;SDS011;12780;45.502;9.146;2022-10-19T09:59:21;64.82;;;32.13;;
24644;SDS011;12780;45.502;9.146;2022-10-19T10:01:58;59.10;;;32.25;;
24644;SDS011;12780;45.502;9.146;2022-10-19T10:04:28;62.58;;;31.92;;
24644;SDS011;12780;45.502;9.146;2022-10-19T10:06:54;66.35;;;32.83;;
24644;SDS011;12780;45.502;9.146;2022-10-19T10:09:23;63.33;;;32.20;;
24644;SDS011;12780;45.502;9.146;2022-10-19T10:11:52;57.67;;;30.35;;
24644;SDS011;12780;45.502;9.146;2022-10-19T10:14:26;61.17;;;33.30;;
24644;SDS011;12780;45.502;9.146;2022-10-19T10:17:00;64.22;;;32.05;;
24644;SDS011;12780;45.502;9.146;2022-10-19T10:19:29;58.45;;;31.92;;
24644;SDS011;12780;45.502;9.146;2022-10-19T10:21:57;57.45;;;30.67;;
24644;SDS011;12780;45.502;9.146;2022-10-19T10:24:25;64.47;;;31.10;;
24644;SDS011;12780;45.502;9.146;2022-10-19T10:27:16;60.78;;;32.22;;
24644;SDS011;12780;45.502;9.146;2022-10-19T10:29:55;57.15;;;30.80;;
24644;SDS011;12780;45.502;9.146;2022-10-19T10:32:20;51.13;;;27.88;;
24644;SDS011;12780;45.502;9.146;2022-10-19T10:34:48;54.13;;;28.92;;
24644;SDS011;12780;45.502;9.146;2022-10-19T10:37:41;58.47;;;29.63;;
24644;SDS011;12780;45.502;9.146;2022-10-19T10:40:27;56.17;;;28.65;;
24644;SDS011;12780;45.502;9.146;2022-10-19T10:42:56;52.90;;;29.17;;
24644;SDS011;12780;45.502;9.146;2022-10-19T10:47:54;54.80;;;28.98;;
24644;SDS011;12780;45.502;9.146;2022-10-19T10:50:22;55.35;;;27.77;;
24644;SDS011;12780;45.502;9.146;2022-10-19T10:53:02;50.75;;;28.42;;
24644;SDS011;12780;45.502;9.146;2022-10-19T10:55:30;65.95;;;28.67;;
24644;SDS011;12780;45.502;9.146;2022-10-19T10:58:15;49.35;;;27.88;;
24644;SDS011;12780;45.502;9.146;2022-10-19T11:00:45;52.78;;;28.13;;
24644;SDS011;12780;45.502;9.146;2022-10-19T11:03:24;50.83;;;26.75;;
24644;SDS011;12780;45.502;9.146;2022-10-19T11:06:00;46.22;;;26.98;;
24644;SDS011;12780;45.502;9.146;2022-10-19T11:08:41;48.35;;;26.35;;
24644;SDS011;12780;45.502;9.146;2022-10-19T11:11:16;55.22;;;28.90;;
24644;SDS011;12780;45.502;9.146;2022-10-19T11:16:40;47.33;;;27.77;;
24644;SDS011;12780;45.502;9.146;2022-10-19T11:19:25;51.78;;;27.85;;
24644;SDS011;12780;45.502;9.146;2022-10-19T11:22:06;55.53;;;27.98;;
24644;SDS011;12780;45.502;9.146;2022-10-19T11:24:48;56.28;;;28.92;;
24644;SDS011;12780;45.502;9.146;2022-10-19T11:35:29;55.35;;;28.35;;
24644;SDS011;12780;45.502;9.146;2022-10-19T11:43:35;56.08;;;28.98;;
24644;SDS011;12780;45.502;9.146;2022-10-19T11:49:22;56.28;;;28.70;;
24644;SDS011;12780;45.502;9.146;2022-10-19T11:52:15;61.70;;;33.47;;
24644;SDS011;12780;45.502;9.146;2022-10-19T12:00:18;64.18;;;31.20;;
24644;SDS011;12780;45.502;9.146;2022-10-19T12:05:24;55.25;;;30.05;;
24644;SDS011;12780;45.502;9.146;2022-10-19T12:13:51;55.92;;;30.58;;
24644;SDS011;12780;45.502;9.146;2022-10-19T12:16:20;58.28;;;30.67;;
24644;SDS011;12780;45.502;9.146;2022-10-19T12:18:52;58.72;;;31.27;;
24644;SDS011;12780;45.502;9.146;2022-10-19T12:21:28;56.15;;;28.70;;
24644;SDS011;12780;45.502;9.146;2022-10-19T12:23:58;56.65;;;29.88;;
24644;SDS011;12780;45.502;9.146;2022-10-19T12:26:28;55.38;;;31.83;;
24644;SDS011;12780;45.502;9.146;2022-10-19T12:28:59;60.50;;;30.10;;
24644;SDS011;12780;45.502;9.146;2022-10-19T12:31:27;56.50;;;30.00;;
24644;SDS011;12780;45.502;9.146;2022-10-19T12:33:59;54.42;;;30.70;;
24644;SDS011;12780;45.502;9.146;2022-10-19T12:39:22;60.97;;;32.85;;
24644;SDS011;12780;45.502;9.146;2022-10-19T12:42:14;61.17;;;34.50;;
24644;SDS011;12780;45.502;9.146;2022-10-19T12:58:38;66.13;;;32.60;;
24644;SDS011;12780;45.502;9.146;2022-10-19T13:01:57;58.60;;;29.88;;
24644;SDS011;12780;45.502;9.146;2022-10-19T13:06:45;59.78;;;30.40;;
24644;SDS011;12780;45.502;9.146;2022-10-19T13:09:20;53.65;;;29.77;;
24644;SDS011;12780;45.502;9.146;2022-10-19T13:12:25;55.63;;;29.42;;
24644;SDS011;12780;45.502;9.146;2022-10-19T13:22:49;63.92;;;35.38;;
24644;SDS011;12780;45.502;9.146;2022-10-19T13:25:38;67.47;;;33.55;;
24644;SDS011;12780;45.502;9.146;2022-10-19T13:35:48;56.67;;;31.52;;
24644;SDS011;12780;45.502;9.146;2022-10-19T13:38:26;57.53;;;29.70;;
24644;SDS011;12780;45.502;9.146;2022-10-19T13:41:02;53.85;;;29.13;;
24644;SDS011;12780;45.502;9.146;2022-10-19T13:44:02;58.00;;;29.80;;
24644;SDS011;12780;45.502;9.146;2022-10-19T13:47:39;61.05;;;31.55;;
24644;SDS011;12780;45.502;9.146;2022-10-19T13:49:56;57.15;;;30.55;;
24644;SDS011;12780;45.502;9.146;2022-10-19T14:06:52;59.65;;;29.50;;
24644;SDS011;12780;45.502;9.146;2022-10-19T14:09:30;53.78;;;28.60;;
24644;SDS011;12780;45.502;9.146;2022-10-19T14:12:05;53.10;;;29.38;;
24644;SDS011;12780;45.502;9.146;2022-10-19T14:14:39;63.85;;;32.42;;
24644;SDS011;12780;45.502;9.146;2022-10-19T14:17:17;57.60;;;30.85;;
24644;SDS011;12780;45.502;9.146;2022-10-19T14:19:48;64.22;;;33.75;;
24644;SDS011;12780;45.502;9.146;2022-10-19T14:22:27;52.22;;;27.20;;
24644;SDS011;12780;45.502;9.146;2022-10-19T14:28:04;53.53;;;28.85;;
24644;SDS011;12780;45.502;9.146;2022-10-19T14:30:31;57.78;;;28.92;;
24644;SDS011;12780;45.502;9.146;2022-10-19T14:32:59;58.58;;;29.95;;
24644;SDS011;12780;45.502;9.146;2022-10-19T14:35:27;53.25;;;28.10;;
24644;SDS011;12780;45.502;9.146;2022-10-19T14:37:55;54.50;;;28.50;;
24644;SDS011;12780;45.502;9.146;2022-10-19T14:42:47;55.42;;;28.95;;
24644;SDS011;12780;45.502;9.146;2022-10-19T14:45:21;53.85;;;29.92;;
24644;SDS011;12780;45.502;9.146;2022-10-19T14:47:54;52.88;;;30.05;;
24644;SDS011;12780;45.502;9.146;2022-10-19T14:50:20;51.15;;;29.17;;
24644;SDS011;12780;45.502;9.146;2022-10-19T14:52:54;51.83;;;27.87;;
24644;SDS011;12780;45.502;9.146;2022-10-19T14:55:24;48.05;;;26.58;;
24644;SDS011;12780;45.502;9.146;2022-10-19T14:57:57;47.45;;;25.77;;
24644;SDS011;12780;45.502;9.146;2022-10-19T15:00:23;46.53;;;25.95;;
24644;SDS011;12780;45.502;9.146;2022-10-19T15:05:24;55.45;;;27.05;;
24644;SDS011;12780;45.502;9.146;2022-10-19T15:07:53;54.08;;;25.40;;
24644;SDS011;12780;45.502;9.146;2022-10-19T15:10:20;48.17;;;26.05;;
24644;SDS011;12780;45.502;9.146;2022-10-19T15:12:51;52.83;;;26.02;;
24644;SDS011;12780;45.502;9.146;2022-10-19T15:15:25;46.22;;;26.65;;
24644;SDS011;12780;45.502;9.146;2022-10-19T15:17:55;50.13;;;26.05;;
24644;SDS011;12780;45.502;9.146;2022-10-19T15:22:49;45.08;;;24.67;;
24644;SDS011;12780;45.502;9.146;2022-10-19T15:25:22;49.17;;;26.33;;
24644;SDS011;12780;45.502;9.146;2022-10-19T15:27:50;48.10;;;26.75;;
24644;SDS011;12780;45.502;9.146;2022-10-19T15:32:44;48.28;;;25.55;;
24644;SDS011;12780;45.502;9.146;2022-10-19T15:35:31;47.28;;;25.65;;
24644;SDS011;12780;45.502;9.146;2022-10-19T15:38:05;45.30;;;24.02;;
24644;SDS011;12780;45.502;9.146;2022-10-19T15:40:42;46.28;;;25.27;;
24644;SDS011;12780;45.502;9.146;2022-10-19T15:46:25;61.75;;;34.03;;
24644;SDS011;12780;45.502;9.146;2022-10-19T15:48:53;61.47;;;34.42;;
24644;SDS011;12780;45.502;9.146;2022-10-19T15:53:52;48.38;;;27.48;;
24644;SDS011;12780;45.502;9.146;2022-10-19T15:56:22;73.80;;;40.75;;
24644;SDS011;12780;45.502;9.146;2022-10-19T15:58:49;71.97;;;39.40;;
24644;SDS011;12780;45.502;9.146;2022-10-19T16:01:17;66.95;;;38.17;;
24644;SDS011;12780;45.502;9.146;2022-10-19T16:03:47;50.67;;;28.80;;
24644;SDS011;12780;45.502;9.146;2022-10-19T16:06:14;56.47;;;28.48;;
24644;SDS011;12780;45.502;9.146;2022-10-19T16:08:41;51.17;;;27.98;;
24644;SDS011;12780;45.502;9.146;2022-10-19T16:11:08;50.67;;;27.40;;
24644;SDS011;12780;45.502;9.146;2022-10-19T16:13:39;60.23;;;31.03;;
24644;SDS011;12780;45.502;9.146;2022-10-19T16:16:05;51.38;;;28.08;;
24644;SDS011;12780;45.502;9.146;2022-10-19T16:18:33;47.55;;;26.77;;
24644;SDS011;12780;45.502;9.146;2022-10-19T16:20:58;49.92;;;26.75;;
24644;SDS011;12780;45.502;9.146;2022-10-19T16:23:24;53.25;;;25.92;;
24644;SDS011;12780;45.502;9.146;2022-10-19T16:25:50;48.22;;;26.63;;
24644;SDS011;12780;45.502;9.146;2022-10-19T16:28:16;47.60;;;27.27;;
24644;SDS011;12780;45.502;9.146;2022-10-19T16:30:43;55.53;;;27.15;;
24644;SDS011;12780;45.502;9.146;2022-10-19T16:33:08;54.20;;;28.52;;
24644;SDS011;12780;45.502;9.146;2022-10-19T16:35:35;55.40;;;28.95;;
24644;SDS011;12780;45.502;9.146;2022-10-19T16:38:01;50.97;;;27.30;;
24644;SDS011;12780;45.502;9.146;2022-10-19T16:40:27;61.72;;;30.75;;
24644;SDS011;12780;45.502;9.146;2022-10-19T16:42:54;51.17;;;29.02;;
24644;SDS011;12780;45.502;9.146;2022-10-19T16:45:22;56.65;;;30.38;;
24644;SDS011;12780;45.502;9.146;2022-10-19T16:47:49;49.58;;;29.42;;
24644;SDS011;12780;45.502;9.146;2022-10-19T16:50:14;53.40;;;28.95;;
24644;SDS011;12780;45.502;9.146;2022-10-19T16:52:40;58.00;;;28.50;;
24644;SDS011;12780;45.502;9.146;2022-10-19T16:55:06;56.65;;;28.85;;
24644;SDS011;12780;45.502;9.146;2022-10-19T16:57:32;55.85;;;28.08;;
24644;SDS011;12780;45.502;9.146;2022-10-19T16:59:57;52.40;;;27.75;;
24644;SDS011;12780;45.502;9.146;2022-10-19T17:02:23;51.63;;;26.90;;
24644;SDS011;12780;45.502;9.146;2022-10-19T17:04:48;51.20;;;26.10;;
24644;SDS011;12780;45.502;9.146;2022-10-19T17:07:14;49.78;;;27.23;;